Monday 27th March 2017 - KPAO 271547Z 27010KT 10SM FEW030 13/09 A3022

Member Accomplishments

February 2017

Date
24th February 2017
Member
William Wester
Instructor
Ted Brennan
Aircraft
N6476G
Accomplishment
First Solo Flight
Date
13th February 2017
Member
Jeffrey Piety
Instructor
Ted Brennan
Aircraft
N494SP
Accomplishment
Private Pilots License
Date
1st February 2017
Member
Jan Dlabal
Instructor
Libor Kovarchuk
Aircraft
N747ZP
Accomplishment
First Solo Flight

January 2017

Date
25th January 2017
Member
Glenn Wolters
Instructor
Ted Brennan
Aircraft
N5276P
Accomplishment
First Solo Flight
Date
13th January 2017
Member
Xu Li
Instructor
Doug Peterman
Aircraft
N9968F
Accomplishment
First Solo Flight

December 2016

Date
22nd December 2016
Member
Andy Yuhan Feng
Instructor
Andrei Afanasief
Aircraft
N5472T
Accomplishment
Flight Instructor (CFI)
Date
17th December 2016
Member
Friedmann David Gilad
Instructor
Rimas Viselga
Aircraft
N5148V
Accomplishment
First Solo Flight
Date
3rd December 2016
Member
David Carman
Instructor
Ted Brennan
Aircraft
N5472T
Accomplishment
Commercial Pilots License
Date
3rd December 2016
Member
Ozan Eren Bilgen
Instructor
Ted Brennan
Aircraft
N16894
Accomplishment
First Solo Flight

November 2016

Date
17th November 2016
Member
Yongzhe Wang
Instructor
Ted Brennan
Aircraft
N5276P
Accomplishment
First Solo Flight
1 2 3 4 5 6 7 8 9 10 11 12 13 14 15 16 17 18 19 20 21 22 23 24 25 26 27 28 29 30 31 32 33 34 35 36 37 38 39 40 41 42 43